Cotton Valley, Louisiana
Current Conditions -  °F | °C
As of 8:15 AM on Friday 19 Dec 2014 (Local Time) from KMNE Reporting Station
Drizzle Drizzle  
Wind Chill: 46°   Ceiling: 900
Heat Index: 48°   Visibility: 10mi
Dew Point: 45°   Wind: 5mph
Humidity: 87%   Direction: 30°NNE
Pressure: 30.19"   Gusts: NA
Location:  32.82°N, 93.42°W
Report Text: KMNE 191415Z AUTO 03004KT 10SM -DZ OVC009 09/07 A3019 RMK AO2
Loading
Personal Weather Stations






























Interactive Weather Map New forecast layout! Learn more

10-Day Weather Forecast

Advertisements
Track Severe Weather on mobile